Terminal Aerodrome Forecast
Issued by NWS

Home | Current Version | Previous Version | Text Only | Print | Product List | Glossary On
Versions: 1 2 3 4 5 6 7 8 9 10 11 12 13 14 15 16
000
FTUS46 KSGX 251700
TAFSNA
TAF
KSNA 251734Z 2518/2618 08008KT P6SM FEW150 WS015/06030KT
     FM252000 20010KT P6SM FEW250
     FM260200 VRB03KT P6SM BKN200
     FM261600 09010KT P6SM VCSH BKN070 BKN100=

USA.gov is the U.S. government's official web portal to all federal, state and local government web resources and services.